createdAt,value
2019-02-22T00:02:13.969Z,25.37
2019-02-22T00:09:11.395Z,25.13
2019-02-22T00:16:08.471Z,27.80
2019-02-22T00:23:06.498Z,28.17
2019-02-22T00:30:03.563Z,26.97
2019-02-22T00:37:01.847Z,27.00
2019-02-22T00:43:58.603Z,29.98
2019-02-22T00:50:56.249Z,26.40
2019-02-22T00:57:53.151Z,27.53
2019-02-22T01:04:50.376Z,27.50
2019-02-22T01:11:47.296Z,29.57
2019-02-22T01:18:44.511Z,22.90
2019-02-22T01:25:41.316Z,29.53
2019-02-22T01:32:38.964Z,26.30
2019-02-22T01:39:35.927Z,25.43
2019-02-22T01:46:32.752Z,28.23
2019-02-22T01:53:30.370Z,26.40
2019-02-22T02:00:27.599Z,28.13
2019-02-22T02:07:24.637Z,22.97
2019-02-22T02:14:21.848Z,24.10
2019-02-22T02:21:18.552Z,25.70
2019-02-22T02:28:15.427Z,25.17
2019-02-22T02:35:12.510Z,20.97
2019-02-22T02:42:10.700Z,28.60
2019-02-22T02:49:07.982Z,25.43
2019-02-22T02:56:05.543Z,20.33
2019-02-22T03:03:02.766Z,27.77
2019-02-22T03:10:00.409Z,24.80
2019-02-22T03:16:57.776Z,26.50
2019-02-22T03:23:55.538Z,26.63
2019-02-22T03:30:52.672Z,23.30
2019-02-22T03:37:49.873Z,27.77
2019-02-22T03:44:47.542Z,24.27
2019-02-22T03:51:44.756Z,28.53
2019-02-22T03:58:41.951Z,26.17
2019-02-22T04:05:39.569Z,29.93
2019-02-22T04:12:38.025Z,27.63
2019-02-22T04:19:34.963Z,31.30
2019-02-22T04:26:32.626Z,31.67
2019-02-22T04:33:29.791Z,33.57
2019-02-22T04:40:27.076Z,38.57
2019-02-22T04:47:23.902Z,40.37
2019-02-22T04:54:21.132Z,39.57
2019-02-22T05:01:19.375Z,37.43
2019-02-22T05:08:16.194Z,39.63
2019-02-22T05:15:13.371Z,48.20
2019-02-22T05:22:10.123Z,40.33
2019-02-22T05:29:07.641Z,39.60
2019-02-22T05:36:05.231Z,45.67
2019-02-22T05:43:02.146Z,44.43
2019-02-22T05:49:59.511Z,46.53
2019-02-22T05:56:56.104Z,49.17
2019-02-22T06:03:53.472Z,44.40
2019-02-22T06:10:50.427Z,47.33
2019-02-22T06:17:47.694Z,47.43
2019-02-22T06:24:45.029Z,42.63
2019-02-22T06:31:41.813Z,56.37
2019-02-22T06:38:39.232Z,60.37
2019-02-22T06:45:35.831Z,54.50
2019-02-22T06:52:33.467Z,61.63
2019-02-22T06:59:30.559Z,60.80
2019-02-22T07:06:27.623Z,62.37
2019-02-22T07:13:24.920Z,61.02
2019-02-22T07:20:11.358Z,62.27
2019-02-22T07:27:15.652Z,60.10
2019-02-22T07:34:17.975Z,60.97
2019-02-22T07:41:02.919Z,58.33
2019-02-22T07:47:47.900Z,59.83
2019-02-22T07:54:45.729Z,56.03
2019-02-22T08:01:47.323Z,56.10
2019-02-22T08:08:42.380Z,58.03
2019-02-22T08:15:39.692Z,54.10
2019-02-22T08:22:36.892Z,51.97
2019-02-22T08:29:34.303Z,49.83
2019-02-22T08:36:19.237Z,45.03
2019-02-22T08:43:04.167Z,47.30
2019-02-22T08:49:49.179Z,45.47
2019-02-22T08:56:34.139Z,44.50
2019-02-22T09:03:31.276Z,41.97
2019-02-22T09:10:28.004Z,41.53
2019-02-22T09:17:25.820Z,39.97
2019-02-22T09:24:22.899Z,42.07
2019-02-22T09:31:19.915Z,40.77
2019-02-22T09:38:04.851Z,41.97
2019-02-22T09:44:49.733Z,40.17
2019-02-22T09:51:47.125Z,36.30
2019-02-22T09:58:32.023Z,36.00
2019-02-22T10:05:16.894Z,38.17
2019-02-22T10:12:01.766Z,31.23
2019-02-22T10:18:46.703Z,29.23
2019-02-22T10:25:43.971Z,31.70
2019-02-22T10:32:41.020Z,25.68
2019-02-22T10:39:38.066Z,25.52
2019-02-22T10:46:35.487Z,26.68
2019-02-22T10:53:32.355Z,28.37
2019-02-22T11:00:29.435Z,17.90
2019-02-22T11:07:26.644Z,16.87
2019-02-22T11:14:29.187Z,16.20
2019-02-22T11:21:10.452Z,20.07
2019-02-22T11:28:14.669Z,15.87
2019-02-22T11:35:11.603Z,15.53
2019-02-22T11:41:56.478Z,16.73
2019-02-22T11:48:53.856Z,10.30
2019-02-22T11:55:38.831Z,11.25
2019-02-22T12:02:45.135Z,8.07
2019-02-22T12:10:01.269Z,8.13
2019-02-22T12:16:59.646Z,7.00
2019-02-22T12:23:57.136Z,14.00
2019-02-22T12:30:42.080Z,11.57
2019-02-22T12:37:39.159Z,12.73
2019-02-22T12:44:35.864Z,17.10
2019-02-22T12:51:32.531Z,12.70
2019-02-22T12:58:30.979Z,12.90
2019-02-22T13:05:18.463Z,8.63
2019-02-22T13:12:13.679Z,8.60
2019-02-22T13:19:02.515Z,8.95
2019-02-22T13:25:59.515Z,9.67
2019-02-22T13:32:56.248Z,11.43
2019-02-22T13:39:53.290Z,11.80
2019-02-22T13:46:50.136Z,8.20
2019-02-22T13:53:47.452Z,12.50
2019-02-22T14:00:44.689Z,9.67
2019-02-22T14:07:41.769Z,13.20
2019-02-22T14:14:41.646Z,11.97
2019-02-22T14:21:38.755Z,7.47
2019-02-22T14:28:51.325Z,8.05
2019-02-22T14:35:56.443Z,8.57
2019-02-22T14:42:41.630Z,11.37
2019-02-22T14:49:26.707Z,8.87
2019-02-22T14:56:23.929Z,8.80
2019-02-22T15:03:21.564Z,9.00
2019-02-22T15:10:19.081Z,10.18
2019-02-22T15:24:45.243Z,9.90
2019-02-22T15:31:42.663Z,7.27
2019-02-22T15:38:39.375Z,6.50
2019-02-22T15:45:36.945Z,6.97
2019-02-22T15:52:34.707Z,6.23
2019-02-22T15:59:31.476Z,7.37
2019-02-22T16:06:29.055Z,4.97
2019-02-22T16:13:25.906Z,6.37
2019-02-22T16:20:22.679Z,6.30
2019-02-22T16:27:20.259Z,6.03
2019-02-22T16:34:05.303Z,10.73
2019-02-22T16:41:09.607Z,6.70
2019-02-22T16:48:06.465Z,6.13
2019-02-22T16:55:04.003Z,5.90
2019-02-22T17:02:01.585Z,8.47
2019-02-22T17:08:46.564Z,15.03
2019-02-22T17:15:33.790Z,6.97
2019-02-22T17:22:30.769Z,11.23
2019-02-22T17:29:27.761Z,13.23
2019-02-22T17:36:12.728Z,17.73
2019-02-22T17:43:17.099Z,18.33
2019-02-22T17:50:14.211Z,8.03
2019-02-22T17:57:11.365Z,16.83
2019-02-22T18:04:08.655Z,9.45
2019-02-22T18:11:05.801Z,8.33
2019-02-22T18:18:02.935Z,9.00
2019-02-22T18:25:00.313Z,8.87
2019-02-22T18:31:57.534Z,10.13
2019-02-22T18:38:55.086Z,10.80
2019-02-22T18:45:53.215Z,6.93
2019-02-22T18:52:52.060Z,7.67
2019-02-22T18:59:49.556Z,8.63
2019-02-22T19:06:46.948Z,7.92
2019-02-22T19:13:44.347Z,10.77
2019-02-22T19:20:41.131Z,11.53
2019-02-22T19:27:38.040Z,11.07
2019-02-22T19:34:23.018Z,11.70
2019-02-22T19:41:20.084Z,9.53
2019-02-22T19:48:17.401Z,11.87
2019-02-22T19:55:14.408Z,11.17
2019-02-22T20:01:59.343Z,14.47
2019-02-22T20:08:44.378Z,14.10
2019-02-22T20:15:41.701Z,11.97
2019-02-22T20:22:38.909Z,13.58
2019-02-22T20:29:23.911Z,13.33
2019-02-22T20:36:09.127Z,12.50
2019-02-22T20:42:54.088Z,18.20
2019-02-22T20:56:55.102Z,14.27
2019-02-22T21:03:40.918Z,16.90
2019-02-22T21:10:25.818Z,13.67
2019-02-22T21:17:23.248Z,16.23
2019-02-22T21:24:20.402Z,21.17
2019-02-22T21:31:18.272Z,17.30
2019-02-22T21:38:16.055Z,15.93
2019-02-22T21:45:13.107Z,15.30
2019-02-22T21:52:10.729Z,14.17
2019-02-22T21:58:55.992Z,17.13
2019-02-22T22:05:42.758Z,17.93
2019-02-22T22:12:28.304Z,17.93
2019-02-22T22:26:48.708Z,15.33
2019-02-22T22:33:52.870Z,17.80
2019-02-22T22:48:19.468Z,18.17
2019-02-22T22:55:05.573Z,21.60
2019-02-22T23:09:25.727Z,19.37
2019-02-22T23:16:22.548Z,20.73
2019-02-22T23:23:20.155Z,18.73
2019-02-22T23:30:07.632Z,17.23
2019-02-22T23:36:52.731Z,16.93
2019-02-22T23:43:49.920Z,17.57
2019-02-22T23:50:35.731Z,26.07
2019-02-22T23:57:32.838Z,17.37
